Time;durP1;ratioP1;P1;durP2;ratioP2;P2;SDS_P1;SDS_P2;PMS_P1;PMS_P2;Temp;Humidity;BMP_temperature;BMP_pressure;BME280_temperature;BME280_humidity;BME280_pressure;Samples;Min_cycle;Max_cycle;Signal;HPM_P1;HPM_P2
2021/03/23 05:01:34;;;;;;;21.92;17.60;;;;;;;0.24;91.16;94322.84;6158096;23;20083;-76
2021/03/23 05:04:02;;;;;;;22.65;17.25;;;;;;;0.08;90.40;94332.66;6151935;23;20005;-74
2021/03/23 05:06:28;;;;;;;14.75;12.50;;;;;;;0.16;90.80;94334.59;6153577;23;20009;-75
2021/03/23 05:08:53;;;;;;;12.98;11.70;;;;;;;0.36;90.44;94329.50;6177470;23;20013;-77
2021/03/23 05:11:24;;;;;;;17.88;14.75;;;;;;;0.36;89.58;94332.03;6178558;23;20009;-77
2021/03/23 05:13:49;;;;;;;15.23;13.63;;;;;;;0.41;89.49;94335.03;6154126;23;20009;-77
2021/03/23 05:16:15;;;;;;;15.25;12.20;;;;;;;0.15;90.77;94335.53;6127795;23;20409;-77
2021/03/23 05:18:40;;;;;;;14.65;12.82;;;;;;;0.44;90.81;94336.50;6129531;23;20009;-77
2021/03/23 05:21:06;;;;;;;13.55;11.23;;;;;;;0.72;88.49;94335.84;6127004;23;20009;-77
2021/03/23 05:23:32;;;;;;;14.68;12.77;;;;;;;0.94;87.90;94332.31;6154167;23;20416;-77
2021/03/23 05:25:57;;;;;;;17.15;14.93;;;;;;;1.06;87.13;94332.09;6127320;23;20435;-77
2021/03/23 05:28:23;;;;;;;13.43;11.63;;;;;;;0.92;87.62;94334.19;6154403;23;20009;-77
2021/03/23 05:30:49;;;;;;;13.43;12.02;;;;;;;0.98;87.54;94337.03;6128267;23;20421;-77
2021/03/23 05:33:14;;;;;;;12.70;11.50;;;;;;;1.09;86.67;94323.41;6153413;23;20024;-77
2021/03/23 05:35:40;;;;;;;11.45;10.32;;;;;;;0.84;88.02;94332.28;6178925;23;20005;-77
2021/03/23 05:38:05;;;;;;;13.18;11.98;;;;;;;0.90;87.76;94338.63;6201525;23;20055;-76
2021/03/23 05:40:33;;;;;;;12.63;11.43;;;;;;;1.05;86.96;94330.50;6178633;23;20072;-77
2021/03/23 05:43:10;;;;;;;12.98;11.40;;;;;;;1.28;86.40;94327.75;6152164;23;20005;-77
2021/03/23 05:45:38;;;;;;;24.25;16.33;;;;;;;1.49;86.40;94334.38;6178458;23;20040;-77
2021/03/23 05:48:16;;;;;;;45.10;25.52;;;;;;;1.49;86.13;94343.75;6152491;23;20013;-78
2021/03/23 05:51:11;;;;;;;29.08;19.13;;;;;;;1.78;85.70;94342.06;6177602;23;20012;-75
2021/03/23 05:53:42;;;;;;;27.98;17.92;;;;;;;1.87;85.36;94346.34;6175672;23;20016;-75
2021/03/23 05:56:08;;;;;;;22.45;16.83;;;;;;;2.27;83.42;94342.88;6146607;23;20379;-75
2021/03/23 05:58:35;;;;;;;20.00;15.63;;;;;;;2.10;84.20;94341.78;6148815;23;20016;-75
2021/03/23 06:01:10;;;;;;;45.25;28.15;;;;;;;2.44;82.85;94352.41;6171696;23;20022;-75
2021/03/23 06:03:47;;;;;;;34.35;24.17;;;;;;;2.67;81.82;94351.94;6147951;23;20033;-75
2021/03/23 06:06:13;;;;;;;24.67;18.48;;;;;;;2.66;80.68;94346.97;6123856;23;20373;-75
2021/03/23 06:08:38;;;;;;;18.35;15.38;;;;;;;2.86;80.25;94355.41;6146820;23;20005;-75
2021/03/23 06:11:22;;;;;;;15.88;14.48;;;;;;;3.31;78.46;94358.06;6172875;23;20056;-75
2021/03/23 06:13:57;;;;;;;20.23;18.00;;;;;;;3.18;79.01;94361.72;6148932;23;20084;-75
2021/03/23 06:16:48;;;;;;;16.08;14.38;;;;;;;3.39;77.47;94369.19;6170894;23;20332;-75
2021/03/23 06:19:13;;;;;;;12.75;11.55;;;;;;;3.31;77.86;94369.06;6150029;23;20355;-75
2021/03/23 06:21:46;;;;;;;13.55;12.32;;;;;;;3.82;75.03;94368.53;6146864;23;20006;-75
2021/03/23 06:24:32;;;;;;;10.48;9.48;;;;;;;4.12;74.88;94362.25;6148676;23;20005;-75
2021/03/23 06:27:03;;;;;;;13.73;12.43;;;;;;;5.12;71.06;94357.53;6121751;23;20013;-75
2021/03/23 06:29:38;;;;;;;9.82;8.98;;;;;;;5.61;68.29;94361.94;6147620;23;20340;-76
2021/03/23 06:32:26;;;;;;;10.30;9.40;;;;;;;6.40;66.15;94360.66;6149532;23;20009;-77
2021/03/23 06:34:56;;;;;;;10.98;9.88;;;;;;;9.35;59.86;94349.19;6146995;23;20013;-78
2021/03/23 06:37:21;;;;;;;8.63;7.93;;;;;;;9.86;54.48;94350.03;6150196;23;20006;-76
2021/03/23 06:39:47;;;;;;;10.48;9.68;;;;;;;11.04;52.46;94358.19;6148920;23;20032;-75
2021/03/23 06:42:13;;;;;;;9.70;7.70;;;;;;;11.58;49.37;94356.53;6147553;23;20005;-75
2021/03/23 06:44:42;;;;;;;7.82;7.22;;;;;;;8.49;54.01;94366.91;6173245;23;20057;-75
2021/03/23 06:47:37;;;;;;;8.23;7.43;;;;;;;6.28;63.54;94370.47;6146228;23;20001;-75
2021/03/23 06:50:35;;;;;;;9.95;9.15;;;;;;;6.25;63.11;94375.94;6124140;23;20017;-78
2021/03/23 06:53:05;;;;;;;9.30;8.50;;;;;;;4.96;69.46;94376.22;6099302;23;20012;-75
2021/03/23 06:55:30;;;;;;;8.90;8.20;;;;;;;8.01;59.44;94368.00;6171905;23;20041;-77
2021/03/23 06:57:56;;;;;;;10.27;9.48;;;;;;;7.00;63.92;94377.34;6148258;23;20017;-77
2021/03/23 07:00:34;;;;;;;10.80;9.95;;;;;;;9.43;55.54;94376.72;6170548;23;20020;-77
2021/03/23 07:03:14;;;;;;;9.23;8.43;;;;;;;12.02;50.78;94371.72;6171392;23;20010;-75
2021/03/23 07:05:42;;;;;;;8.02;7.32;;;;;;;13.32;43.20;94364.38;6121092;23;20006;-76
2021/03/23 07:08:07;;;;;;;9.90;9.00;;;;;;;8.92;53.24;94376.56;6145999;23;20045;-75
2021/03/23 07:10:43;;;;;;;12.95;11.75;;;;;;;9.27;56.19;94382.88;6148579;23;20016;-75
2021/03/23 07:13:30;;;;;;;22.88;19.45;;;;;;;8.12;55.19;94382.28;6144896;23;20451;-75
2021/03/23 07:16:04;;;;;;;18.63;16.58;;;;;;;6.45;62.58;94392.66;6148253;23;20008;-76
2021/03/23 07:18:31;;;;;;;6.47;5.88;;;;;;;4.40;65.15;94397.09;6121656;23;20117;-76
2021/03/23 07:21:01;;;;;;;6.47;5.97;;;;;;;4.97;67.01;94388.09;6146246;23;20105;-75
2021/03/23 07:23:40;;;;;;;4.37;3.97;;;;;;;4.28;68.36;94390.59;6146364;23;20017;-76
2021/03/23 07:26:21;;;;;;;2.70;2.50;;;;;;;3.03;71.08;94401.50;6145097;23;20006;-77
2021/03/23 07:28:47;;;;;;;3.28;3.03;;;;;;;2.30;73.27;94394.47;6171809;23;20073;-75
2021/03/23 07:31:32;;;;;;;2.90;2.70;;;;;;;1.98;74.55;94399.84;6170163;23;20514;-77
2021/03/23 07:34:08;;;;;;;2.70;2.50;;;;;;;2.36;75.35;94393.94;6170839;23;20014;-76
2021/03/23 07:37:17;;;;;;;3.10;2.80;;;;;;;2.29;74.78;94394.59;6171461;23;20261;-76
2021/03/23 07:39:51;;;;;;;2.80;2.60;;;;;;;2.08;75.63;94407.50;6077204;23;20016;-76
2021/03/23 07:42:28;;;;;;;3.38;3.10;;;;;;;2.17;75.81;94408.44;6149496;23;20010;-75
2021/03/23 07:45:10;;;;;;;4.45;2.90;;;;;;;2.85;74.75;94412.56;6173415;23;20006;-75
2021/03/23 07:47:46;;;;;;;3.40;3.13;;;;;;;2.30;76.32;94412.34;6121029;23;20012;-75
2021/03/23 07:50:34;;;;;;;3.40;3.17;;;;;;;3.10;73.93;94411.97;6148080;23;20001;-77
2021/03/23 07:53:22;;;;;;;3.20;2.97;;;;;;;2.79;74.53;94415.69;6146725;23;20001;-77
2021/03/23 07:55:49;;;;;;;3.10;2.80;;;;;;;2.78;74.93;94411.50;6137123;23;20440;-75
2021/03/23 07:58:59;;;;;;;3.30;3.00;;;;;;;3.48;71.86;94411.84;6146991;23;20044;-77
2021/03/23 08:01:45;;;;;;;3.35;3.08;;;;;;;2.87;73.22;94410.69;6131442;23;20430;-77
2021/03/23 08:04:19;;;;;;;3.53;3.25;;;;;;;3.78;72.37;94413.31;6172162;23;20092;-77
2021/03/23 08:07:10;;;;;;;3.92;2.78;;;;;;;4.20;69.27;94405.91;6148385;23;20359;-77
2021/03/23 08:09:52;;;;;;;2.75;2.55;;;;;;;3.49;69.77;94415.19;6145867;23;20006;-75
2021/03/23 08:12:24;;;;;;;2.63;2.42;;;;;;;3.21;69.96;94411.00;6172642;23;20006;-77
2021/03/23 08:14:53;;;;;;;2.60;2.40;;;;;;;5.06;67.41;94407.69;6147746;23;20005;-75
2021/03/23 08:17:45;;;;;;;2.22;2.13;;;;;;;4.14;67.03;94406.50;6148236;23;20009;-75
2021/03/23 08:20:32;;;;;;;1.85;1.75;;;;;;;4.92;65.70;94410.00;6146620;23;20009;-78
2021/03/23 08:23:25;;;;;;;2.20;2.00;;;;;;;5.24;64.96;94408.44;6147187;23;20060;-75
2021/03/23 08:25:56;;;;;;;1.83;1.73;;;;;;;5.18;67.44;94397.97;6147490;23;20355;-75
2021/03/23 08:28:30;;;;;;;2.42;2.22;;;;;;;4.76;64.30;94403.00;6141380;23;20048;-75
2021/03/23 08:31:17;;;;;;;1.90;1.80;;;;;;;4.15;66.13;94405.50;6141414;23;20089;-76
2021/03/23 08:33:59;;;;;;;2.45;2.08;;;;;;;5.01;63.06;94404.00;6147595;23;20033;-75
2021/03/23 08:36:55;;;;;;;1.88;1.77;;;;;;;6.18;62.10;94404.03;6122026;23;20001;-75
2021/03/23 08:39:26;;;;;;;2.23;2.10;;;;;;;4.53;64.58;94400.09;6147498;23;20010;-75
2021/03/23 08:41:57;;;;;;;2.13;1.95;;;;;;;5.11;65.76;94404.66;6148173;23;20006;-76
2021/03/23 08:44:35;;;;;;;1.48;1.38;;;;;;;7.08;58.72;94399.72;6146592;23;20009;-75
2021/03/23 08:47:23;;;;;;;2.05;1.85;;;;;;;7.12;57.78;94385.56;6147670;23;20012;-79
2021/03/23 08:49:49;;;;;;;1.73;1.63;;;;;;;4.96;62.16;94393.34;6147212;23;20017;-76
2021/03/23 08:52:41;;;;;;;2.00;1.80;;;;;;;4.32;63.71;94391.09;6170987;23;20357;-77
2021/03/23 08:55:29;;;;;;;2.17;1.90;;;;;;;4.91;64.50;94395.59;6138132;23;20450;-76
2021/03/23 08:58:17;;;;;;;1.70;1.60;;;;;;;6.54;60.05;94390.91;6139065;23;20028;-75
2021/03/23 09:00:52;;;;;;;1.55;1.40;;;;;;;4.59;62.91;94398.72;6168707;23;20036;-75
2021/03/23 09:03:17;;;;;;;1.50;1.40;;;;;;;4.56;63.90;94399.78;6148081;23;20359;-75
2021/03/23 09:05:52;;;;;;;3.10;1.90;;;;;;;4.24;67.89;94405.44;6144939;23;20010;-78
2021/03/23 09:08:20;;;;;;;2.65;2.45;;;;;;;4.89;64.21;94397.47;6145063;23;20017;-77
2021/03/23 09:11:01;;;;;;;2.38;2.17;;;;;;;4.10;67.12;94402.59;6146241;23;20247;-77
2021/03/23 09:13:33;;;;;;;2.47;2.10;;;;;;;4.72;65.47;94401.69;6169459;23;20451;-77
2021/03/23 09:15:59;;;;;;;2.38;2.17;;;;;;;4.23;65.59;94403.84;6148444;23;20081;-76
2021/03/23 09:18:27;;;;;;;2.33;2.10;;;;;;;4.30;67.40;94409.19;6145352;23;20064;-77
2021/03/23 09:20:54;;;;;;;2.30;2.10;;;;;;;4.73;65.88;94400.72;6147969;23;20036;-78
2021/03/23 09:23:25;;;;;;;2.30;2.20;;;;;;;4.86;66.64;94403.72;6168479;23;20009;-77
2021/03/23 09:26:00;;;;;;;2.33;2.13;;;;;;;5.00;67.81;94413.44;6147053;23;20080;-78
2021/03/23 09:28:32;;;;;;;2.55;2.42;;;;;;;5.37;65.80;94404.66;6146018;23;20493;-75
2021/03/23 09:31:33;;;;;;;2.60;2.40;;;;;;;3.67;70.25;94414.31;6147306;23;20389;-77
2021/03/23 09:33:59;;;;;;;3.25;3.00;;;;;;;4.44;67.23;94410.44;6149601;23;20009;-77
2021/03/23 09:36:29;;;;;;;3.97;3.67;;;;;;;4.83;69.98;94416.03;6144065;23;20029;-77
2021/03/23 09:39:13;;;;;;;3.15;2.90;;;;;;;5.52;67.43;94419.31;6144314;23;20315;-75
2021/03/23 09:41:39;;;;;;;3.20;3.00;;;;;;;4.77;68.59;94413.13;6144661;23;20072;-75
2021/03/23 09:44:04;;;;;;;3.17;2.90;;;;;;;4.09;69.58;94417.16;6145878;23;20017;-76
2021/03/23 09:46:53;;;;;;;3.83;3.40;;;;;;;4.63;70.12;94423.91;6145857;23;20091;-77
2021/03/23 09:49:26;;;;;;;3.17;2.97;;;;;;;5.14;68.72;94418.00;6144789;23;20360;-77
2021/03/23 09:52:01;;;;;;;3.92;3.63;;;;;;;4.82;68.36;94420.34;6169286;23;20005;-77
2021/03/23 09:54:34;;;;;;;3.03;2.83;;;;;;;4.99;68.81;94419.53;6146392;23;20007;-78
2021/03/23 09:57:04;;;;;;;3.47;3.28;;;;;;;4.95;67.50;94419.97;6167648;23;20005;-76
2021/03/23 09:59:31;;;;;;;3.72;3.42;;;;;;;4.25;67.99;94426.75;6170323;23;20468;-77
2021/03/23 10:02:17;;;;;;;4.43;4.03;;;;;;;5.22;68.26;94419.81;6143128;23;20017;-75
2021/03/23 10:04:44;;;;;;;3.75;3.45;;;;;;;5.51;64.79;94427.19;6136066;23;20013;-76
2021/03/23 10:07:33;;;;;;;3.42;3.13;;;;;;;6.17;65.87;94430.69;6169305;23;20063;-75
2021/03/23 10:10:44;;;;;;;4.38;4.07;;;;;;;7.07;61.18;94413.53;6169634;23;20470;-76
2021/03/23 10:13:27;;;;;;;3.13;2.92;;;;;;;6.26;63.70;94421.25;6143072;23;20455;-75
2021/03/23 10:15:53;;;;;;;4.03;3.47;;;;;;;5.67;62.95;94410.09;6144371;23;20482;-74
2021/03/23 10:18:25;;;;;;;3.78;3.47;;;;;;;6.49;64.45;94424.00;6120805;23;20009;-76
2021/03/23 10:20:58;;;;;;;3.70;3.40;;;;;;;5.94;65.85;94426.28;6145148;23;20013;-75
2021/03/23 10:23:24;;;;;;;4.15;3.85;;;;;;;6.33;66.12;94423.00;6145041;23;20016;-75
2021/03/23 10:25:50;;;;;;;3.65;3.40;;;;;;;6.02;67.05;94410.88;6145969;23;20116;-75
2021/03/23 10:28:36;;;;;;;3.80;3.50;;;;;;;5.28;61.66;94414.91;6168800;23;20010;-76
2021/03/23 10:31:07;;;;;;;3.83;3.53;;;;;;;5.57;63.53;94411.19;6144932;23;20059;-75
2021/03/23 10:33:34;;;;;;;3.97;3.67;;;;;;;5.54;64.53;94414.88;6144225;23;20013;-76
2021/03/23 10:36:10;;;;;;;4.65;4.22;;;;;;;5.53;65.72;94420.94;6168185;23;20021;-76
2021/03/23 10:38:38;;;;;;;3.40;3.10;;;;;;;5.24;63.08;94420.47;6146084;23;20337;-75
2021/03/23 10:41:19;;;;;;;3.00;2.80;;;;;;;4.64;62.77;94417.81;6168569;23;20036;-75
2021/03/23 10:44:06;;;;;;;3.60;3.30;;;;;;;5.22;62.09;94419.81;6145489;23;20009;-75
2021/03/23 10:46:32;;;;;;;3.78;3.47;;;;;;;4.84;63.13;94420.22;6140091;23;20333;-75
2021/03/23 10:49:20;;;;;;;3.60;3.30;;;;;;;4.97;62.40;94424.00;6168584;23;20002;-75
2021/03/23 10:51:47;;;;;;;3.40;3.10;;;;;;;4.69;59.28;94430.19;6147633;23;20006;-75
2021/03/23 10:54:13;;;;;;;2.97;2.78;;;;;;;4.81;60.50;94435.91;6144843;23;20013;-75
2021/03/23 10:56:48;;;;;;;4.68;3.80;;;;;;;5.08;57.56;94420.38;6145176;23;20013;-75
2021/03/23 10:59:24;;;;;;;4.03;3.72;;;;;;;5.09;61.81;94427.13;6144292;23;20406;-75
2021/03/23 11:02:24;;;;;;;4.35;4.00;;;;;;;4.67;61.75;94424.41;6167182;23;20361;-76
2021/03/23 11:05:00;;;;;;;4.30;3.63;;;;;;;5.20;61.56;94419.19;6136234;23;20033;-77
2021/03/23 11:07:26;;;;;;;4.10;3.80;;;;;;;5.82;60.04;94423.97;6168274;23;20006;-76
2021/03/23 11:10:00;;;;;;;4.00;3.70;;;;;;;4.96;58.88;94417.25;6144993;23;20061;-77
2021/03/23 11:12:27;;;;;;;4.80;4.40;;;;;;;5.13;60.89;94418.97;6145821;23;20041;-75
2021/03/23 11:14:54;;;;;;;4.55;4.20;;;;;;;5.11;62.91;94420.88;6144284;23;20467;-75
2021/03/23 11:17:23;;;;;;;3.92;3.63;;;;;;;5.23;55.61;94418.88;6168472;23;20432;-76
2021/03/23 11:19:52;;;;;;;4.82;4.43;;;;;;;5.59;57.66;94420.34;6119490;23;20048;-76
2021/03/23 11:22:24;;;;;;;4.80;4.40;;;;;;;4.91;61.68;94427.16;6145872;23;20164;-75
2021/03/23 11:24:50;;;;;;;4.75;4.35;;;;;;;4.87;59.32;94418.16;6144652;23;19998;-76
2021/03/23 11:27:15;;;;;;;5.63;5.20;;;;;;;4.98;59.65;94419.66;6120163;23;20861;-76
2021/03/23 11:29:40;;;;;;;5.38;4.90;;;;;;;4.90;59.85;94423.00;6169684;23;20588;-75
2021/03/23 11:32:06;;;;;;;5.63;5.18;;;;;;;5.27;60.80;94420.16;6168046;23;20013;-75
2021/03/23 11:34:32;;;;;;;5.03;4.63;;;;;;;4.99;60.83;94419.53;6146129;23;20014;-75
2021/03/23 11:36:57;;;;;;;5.72;5.32;;;;;;;5.21;60.90;94423.34;6168047;23;20010;-75
2021/03/23 11:39:23;;;;;;;6.60;5.88;;;;;;;5.11;60.10;94420.88;6145908;23;20039;-76
2021/03/23 11:42:04;;;;;;;6.13;5.63;;;;;;;5.32;59.10;94426.47;6144484;23;20059;-76
2021/03/23 11:44:35;;;;;;;5.53;5.03;;;;;;;5.11;60.57;94425.19;6169878;23;20013;-76
2021/03/23 11:47:17;;;;;;;5.43;5.00;;;;;;;4.51;59.46;94426.84;6120136;23;20017;-77
2021/03/23 11:49:49;;;;;;;7.40;5.70;;;;;;;4.70;62.11;94424.09;6145656;23;20010;-77
2021/03/23 11:52:14;;;;;;;5.55;5.15;;;;;;;5.31;58.58;94426.63;6146238;23;20025;-76
2021/03/23 11:54:40;;;;;;;4.75;4.35;;;;;;;4.58;61.79;94428.66;6146095;23;20032;-78
2021/03/23 11:57:06;;;;;;;5.35;4.93;;;;;;;5.31;60.99;94424.03;6170543;23;20006;-76
2021/03/23 11:59:32;;;;;;;6.38;4.70;;;;;;;5.06;61.19;94430.00;6170440;23;20063;-76
2021/03/23 12:01:57;;;;;;;4.95;4.55;;;;;;;4.94;60.32;94433.75;6169641;23;20385;-75
2021/03/23 12:04:23;;;;;;;5.38;4.97;;;;;;;5.10;59.16;94429.56;6170878;23;20005;-76
2021/03/23 12:07:01;;;;;;;5.25;4.85;;;;;;;4.88;57.05;94434.34;6170025;23;20487;-76
2021/03/23 12:09:31;;;;;;;4.75;4.35;;;;;;;5.22;59.72;94423.19;6146970;23;20430;-76
2021/03/23 12:12:13;;;;;;;5.35;4.85;;;;;;;6.01;58.36;94434.97;6144918;23;20092;-76
2021/03/23 12:14:55;;;;;;;5.45;4.60;;;;;;;5.29;59.93;94429.34;6146436;23;20060;-76
2021/03/23 12:17:23;;;;;;;5.47;5.05;;;;;;;5.70;59.91;94421.84;6144829;23;20056;-76
2021/03/23 12:19:51;;;;;;;5.32;4.93;;;;;;;5.47;60.48;94420.75;6121461;23;20040;-76
2021/03/23 12:22:17;;;;;;;4.88;4.47;;;;;;;5.49;61.18;94419.63;6146258;23;20064;-76
2021/03/23 12:24:48;;;;;;;5.60;5.00;;;;;;;5.19;63.21;94420.13;6169305;23;20014;-76
2021/03/23 12:27:14;;;;;;;4.50;4.15;;;;;;;5.67;59.66;94425.53;6123794;23;20037;-76
2021/03/23 12:29:40;;;;;;;4.68;4.28;;;;;;;5.92;59.34;94425.63;6147327;23;20006;-76
2021/03/23 12:32:16;;;;;;;4.85;4.45;;;;;;;5.88;60.12;94419.19;6148413;23;20398;-76
2021/03/23 12:34:45;;;;;;;4.93;4.53;;;;;;;5.45;59.52;94415.78;6122970;23;20005;-76
2021/03/23 12:37:14;;;;;;;4.95;4.55;;;;;;;5.52;58.76;94411.63;6146238;23;20009;-76
2021/03/23 12:39:40;;;;;;;4.63;4.27;;;;;;;5.67;59.30;94411.88;6148533;23;20001;-76
2021/03/23 12:42:06;;;;;;;5.68;5.18;;;;;;;5.30;61.06;94412.16;6146353;23;20012;-75
2021/03/23 12:44:34;;;;;;;5.50;5.05;;;;;;;5.11;61.67;94407.22;6172301;23;20005;-75
2021/03/23 12:46:59;;;;;;;6.15;5.65;;;;;;;5.35;61.39;94409.97;6171406;23;20012;-76
2021/03/23 12:49:25;;;;;;;5.18;4.78;;;;;;;5.43;59.13;94399.72;6172384;23;20005;-76
2021/03/23 12:51:51;;;;;;;6.35;5.85;;;;;;;5.41;59.07;94405.97;6171955;23;20454;-75
2021/03/23 12:54:46;;;;;;;5.63;5.22;;;;;;;5.73;60.76;94404.34;6171098;23;20392;-76
2021/03/23 12:57:18;;;;;;;5.55;5.07;;;;;;;5.61;60.42;94412.50;6172150;23;20013;-76
2021/03/23 12:59:44;;;;;;;5.32;4.93;;;;;;;5.80;59.82;94407.91;6170772;23;20017;-76
2021/03/23 13:02:15;;;;;;;5.50;5.07;;;;;;;4.91;57.25;94404.09;6122535;23;20037;-76
2021/03/23 13:04:40;;;;;;;5.78;5.28;;;;;;;5.32;60.78;94407.69;6146970;23;20459;-76
2021/03/23 13:07:07;;;;;;;6.18;5.68;;;;;;;6.04;59.39;94408.97;6148053;23;20051;-76
2021/03/23 13:09:33;;;;;;;5.82;5.32;;;;;;;5.90;56.83;94405.25;6172343;23;20080;-76
2021/03/23 13:11:59;;;;;;;6.35;5.85;;;;;;;5.51;58.23;94404.91;6146358;23;20005;-76
2021/03/23 13:14:26;;;;;;;6.25;5.65;;;;;;;4.37;56.95;94404.28;6171558;23;20013;-76
2021/03/23 13:16:52;;;;;;;5.80;5.30;;;;;;;4.42;59.42;94404.66;6146341;23;20032;-76
2021/03/23 13:19:18;;;;;;;5.55;5.10;;;;;;;4.83;56.51;94408.34;6147184;23;20001;-76
2021/03/23 13:22:00;;;;;;;7.75;7.05;;;;;;;4.95;60.90;94405.38;6146338;23;20525;-77
2021/03/23 13:24:43;;;;;;;6.63;6.13;;;;;;;4.84;61.33;94404.81;6146195;23;20505;-76
2021/03/23 13:27:19;;;;;;;6.30;5.80;;;;;;;5.11;60.02;94402.91;6147602;23;20009;-76
2021/03/23 13:29:46;;;;;;;7.00;6.40;;;;;;;4.64;61.64;94410.13;6145582;23;20452;-76
2021/03/23 13:32:11;;;;;;;8.05;7.32;;;;;;;4.78;62.18;94408.81;6147280;23;20041;-76
2021/03/23 13:34:38;;;;;;;14.52;11.30;;;;;;;4.99;62.19;94406.69;6170836;23;20002;-77
2021/03/23 13:37:05;;;;;;;12.30;9.85;;;;;;;4.79;61.97;94411.19;6146723;23;20006;-76
2021/03/23 13:39:32;;;;;;;9.38;7.55;;;;;;;4.72;63.05;94407.63;6122311;23;20040;-76
2021/03/23 13:42:23;;;;;;;20.75;14.00;;;;;;;4.86;64.01;94401.16;6121637;23;20051;-76
2021/03/23 13:44:59;;;;;;;16.08;13.43;;;;;;;4.95;64.34;94395.13;6146586;23;20364;-76
2021/03/23 13:47:25;;;;;;;11.30;9.55;;;;;;;4.72;65.22;94399.09;6170510;23;20016;-76
2021/03/23 13:49:51;;;;;;;24.88;15.52;;;;;;;4.37;64.72;94397.38;6146860;23;20076;-76
2021/03/23 13:52:28;;;;;;;8.65;7.88;;;;;;;4.38;65.40;94396.44;6122352;23;19998;-75
2021/03/23 13:54:57;;;;;;;8.50;7.70;;;;;;;4.59;65.73;94391.81;6169810;23;20041;-76
2021/03/23 13:57:23;;;;;;;16.38;11.95;;;;;;;4.40;65.29;94391.97;6146762;23;20036;-76
2021/03/23 13:59:49;;;;;;;12.80;10.27;;;;;;;4.44;65.94;94400.97;6121179;23;20013;-76
2021/03/23 14:02:20;;;;;;;11.70;10.20;;;;;;;4.52;67.21;94402.81;6122631;23;20033;-76
2021/03/23 14:04:46;;;;;;;11.20;10.00;;;;;;;4.43;67.50;94401.16;6145870;23;20486;-76
2021/03/23 14:07:25;;;;;;;8.73;7.93;;;;;;;4.24;67.96;94402.06;6121888;23;20092;-76
2021/03/23 14:09:51;;;;;;;8.68;7.93;;;;;;;4.18;68.18;94402.66;6147197;23;20013;-76
2021/03/23 14:12:24;;;;;;;8.90;8.10;;;;;;;4.24;67.33;94399.50;6167650;23;20455;-76
2021/03/23 14:14:50;;;;;;;7.70;6.93;;;;;;;4.14;67.91;94396.25;6147398;23;20502;-76
2021/03/23 14:17:17;;;;;;;8.05;7.35;;;;;;;4.34;68.36;94399.44;6170142;23;20005;-76
2021/03/23 14:19:42;;;;;;;8.02;7.32;;;;;;;4.41;68.09;94401.28;6145412;23;20028;-76
2021/03/23 14:22:12;;;;;;;8.35;7.65;;;;;;;4.31;67.27;94404.84;6143837;23;20081;-76
2021/03/23 14:24:38;;;;;;;8.85;6.90;;;;;;;4.32;67.80;94397.03;6170093;23;20059;-76
2021/03/23 14:27:04;;;;;;;8.95;8.13;;;;;;;4.23;68.95;94403.03;6170140;23;20352;-77
2021/03/23 14:29:29;;;;;;;8.75;7.75;;;;;;;4.22;69.01;94404.00;6146012;23;20020;-76
2021/03/23 14:31:55;;;;;;;14.00;12.30;;;;;;;3.83;72.89;94410.31;6171652;23;20013;-79
2021/03/23 14:34:20;;;;;;;15.80;14.25;;;;;;;3.69;74.44;94412.41;6143901;23;20011;-78
2021/03/23 14:36:47;;;;;;;18.98;17.08;;;;;;;3.67;75.12;94409.19;6146473;23;20006;-78
2021/03/23 14:39:36;;;;;;;17.90;15.95;;;;;;;3.37;76.49;94414.56;6121451;23;20076;-78
2021/03/23 14:42:02;;;;;;;16.20;14.53;;;;;;;3.34;76.08;94414.06;6122594;23;20009;-77
2021/03/23 14:44:28;;;;;;;15.55;13.98;;;;;;;3.24;76.07;94411.53;6146022;23;20329;-78
2021/03/23 14:46:53;;;;;;;16.55;14.88;;;;;;;3.09;76.72;94412.91;6120809;23;20040;-77
2021/03/23 14:49:19;;;;;;;16.67;15.13;;;;;;;3.29;76.41;94418.78;6146770;23;20002;-77
2021/03/23 14:51:45;;;;;;;16.17;14.55;;;;;;;3.01;77.90;94417.94;6145157;23;20068;-77
2021/03/23 14:54:30;;;;;;;18.15;16.15;;;;;;;2.97;78.30;94409.72;6146370;23;20012;-77
2021/03/23 14:56:56;;;;;;;19.95;17.85;;;;;;;2.98;78.55;94416.47;6145421;23;20349;-79
2021/03/23 14:59:22;;;;;;;21.20;18.73;;;;;;;2.85;79.08;94413.38;6145852;23;20016;-78
2021/03/23 15:01:48;;;;;;;21.42;18.65;;;;;;;2.93;80.09;94420.34;6145744;23;20017;-78
2021/03/23 15:04:13;;;;;;;23.85;21.33;;;;;;;3.06;80.03;94415.75;6145388;23;20005;-78
2021/03/23 15:06:39;;;;;;;20.02;17.65;;;;;;;3.01;78.91;94418.75;6146592;23;20346;-77
2021/03/23 15:09:19;;;;;;;17.63;15.60;;;;;;;2.69;78.95;94413.16;6145316;23;20014;-78
2021/03/23 15:11:45;;;;;;;24.75;18.17;;;;;;;2.66;79.73;94405.75;6146066;23;20423;-76
2021/03/23 15:14:11;;;;;;;19.67;17.58;;;;;;;2.86;79.31;94411.66;6169996;23;20008;-78
2021/03/23 15:16:36;;;;;;;18.92;16.90;;;;;;;2.62;79.63;94401.84;6145772;23;20076;-78
2021/03/23 15:19:02;;;;;;;22.65;20.30;;;;;;;2.74;79.79;94397.38;6145410;23;20344;-77
2021/03/23 15:21:41;;;;;;;30.95;21.13;;;;;;;2.64;79.32;94398.22;6120528;23;20415;-78
2021/03/23 15:24:08;;;;;;;27.00;19.98;;;;;;;2.67;79.48;94409.91;6146474;23;20006;-78
2021/03/23 15:26:35;;;;;;;24.27;20.98;;;;;;;2.44;80.06;94395.81;6120249;23;20032;-77
2021/03/23 15:29:21;;;;;;;25.10;19.48;;;;;;;2.44;80.52;94399.16;6146406;23;20060;-78
2021/03/23 15:31:47;;;;;;;24.35;21.60;;;;;;;2.40;80.42;94402.13;6145409;23;20016;-78
2021/03/23 15:34:12;;;;;;;23.95;21.40;;;;;;;2.27;80.78;94407.53;6145164;23;20748;-78
2021/03/23 15:36:44;;;;;;;24.70;19.40;;;;;;;2.18;81.49;94417.72;6145932;23;20009;-77
2021/03/23 15:39:29;;;;;;;22.48;19.75;;;;;;;1.89;82.84;94422.81;6143143;23;20407;-75
2021/03/23 15:42:06;;;;;;;25.55;20.75;;;;;;;2.03;82.38;94430.06;6170981;23;20440;-76
2021/03/23 15:44:32;;;;;;;23.63;20.77;;;;;;;2.28;81.89;94437.22;6121230;23;20444;-76
2021/03/23 15:46:57;;;;;;;26.42;22.63;;;;;;;2.15;81.91;94434.13;6145124;23;20013;-76
2021/03/23 15:49:23;;;;;;;33.13;20.30;;;;;;;2.44;80.83;94427.25;6146590;23;20009;-76
2021/03/23 15:51:48;;;;;;;23.60;20.58;;;;;;;2.18;82.09;94436.41;6120466;23;20009;-76
2021/03/23 15:54:14;;;;;;;25.35;20.50;;;;;;;2.32;81.35;94441.13;6122067;23;20014;-76
2021/03/23 15:56:44;;;;;;;25.67;20.98;;;;;;;2.27;82.25;94440.72;6145143;23;19998;-77
2021/03/23 15:59:21;;;;;;;27.53;22.37;;;;;;;2.38;81.85;94438.03;6148416;23;20466;-76
2021/03/23 16:01:46;;;;;;;27.38;23.92;;;;;;;2.15;81.92;94441.78;6146742;23;20450;-76
2021/03/23 16:04:12;;;;;;;30.85;23.15;;;;;;;1.88;83.24;94446.72;6148062;23;20017;-76
2021/03/23 16:06:37;;;;;;;30.67;24.33;;;;;;;2.13;82.05;94448.75;6123359;23;20006;-76
2021/03/23 16:09:06;;;;;;;29.08;23.83;;;;;;;2.21;81.85;94454.03;6147744;23;20005;-80
2021/03/23 16:11:32;;;;;;;114.28;59.17;;;;;;;2.08;82.03;94454.28;6149367;23;20010;-79
2021/03/23 16:14:00;;;;;;;28.02;22.23;;;;;;;1.99;82.28;94456.81;6146742;23;20068;-78
2021/03/23 16:16:26;;;;;;;29.58;22.65;;;;;;;1.79;82.77;94453.41;6173413;23;20358;-78
2021/03/23 16:18:52;;;;;;;31.25;22.75;;;;;;;1.86;82.55;94451.16;6146272;23;20029;-79
2021/03/23 16:21:23;;;;;;;25.42;21.45;;;;;;;1.66;82.69;94462.22;6148407;23;20442;-77
2021/03/23 16:23:49;;;;;;;28.50;22.35;;;;;;;1.76;82.56;94466.44;6146808;23;20017;-77
2021/03/23 16:26:20;;;;;;;26.27;22.13;;;;;;;1.72;82.93;94466.81;6148185;23;20017;-76
2021/03/23 16:28:46;;;;;;;28.60;24.50;;;;;;;1.71;83.17;94470.28;6148571;23;20014;-77
2021/03/23 16:31:22;;;;;;;25.42;20.58;;;;;;;1.51;83.36;94462.56;6146333;23;20494;-76
2021/03/23 16:33:48;;;;;;;26.42;21.55;;;;;;;1.52;83.50;94465.94;6140000;23;20010;-76
2021/03/23 16:36:13;;;;;;;28.63;24.98;;;;;;;1.56;83.36;94463.00;6120823;23;20408;-77
2021/03/23 16:38:39;;;;;;;31.90;24.65;;;;;;;1.55;83.42;94466.50;6146704;23;20025;-78
2021/03/23 16:41:04;;;;;;;28.63;21.88;;;;;;;1.50;83.93;94478.03;6146133;23;20564;-76
2021/03/23 16:43:30;;;;;;;30.83;24.65;;;;;;;1.53;83.72;94472.66;6122586;23;20002;-78
2021/03/23 16:45:56;;;;;;;33.33;25.35;;;;;;;1.41;84.66;94479.56;6146664;23;20005;-76
2021/03/23 16:48:22;;;;;;;32.25;25.60;;;;;;;1.39;84.21;94491.66;6146588;23;20096;-75
2021/03/23 16:50:49;;;;;;;32.05;25.80;;;;;;;1.48;84.15;94480.69;6146515;23;20073;-75
2021/03/23 16:53:35;;;;;;;36.95;27.63;;;;;;;1.29;84.51;94479.78;6145575;23;20013;-77
2021/03/23 16:56:00;;;;;;;35.75;25.35;;;;;;;1.39;84.39;94484.00;6139744;23;20072;-76
2021/03/23 16:58:26;;;;;;;33.78;24.95;;;;;;;1.24;84.73;94492.94;6146446;23;20056;-76